Grants Pass, OR (97526)

10:45 AM PDT on August 30, 2014 (GMT -0700)
NE Savage | Change Station
CLOSE
Current Station
Personal Weather Station
Location: Grants Pass, OR
Elevation: 1129 ft
Nearby Weather Stations

Elev 1129 ft 42.45 °N, 123.31 °W | Updated 10 minutes ago

Partly Cloudy
Partly Cloudy
65.8 °F
Feels Like 65.8 °F
N
0.0
Wind Variable Wind from West
Gusts 3.0 mph

Today
High -- | Low -- °F
--% Chance of Precip.
Yesterday
High -- | Low -- °F
Precip. -- in
6:36 AM 7:50 PM
Waxing Crescent, 23% visible
Pressure 29.99 in
Visibility 10.0 miles
Clouds Clear
Dew Point 51 °F
Humidity 59%
Rainfall 0.00 in
Snow Depth Not available.
UV 4 out of 12
Pollen 6.20 out of 12
Air Quality Not available.
Flu Activity Not available.
METAR KMFR 301653Z 00000KT 10SM CLR 18/09 A3002 RMK AO2 SLP155 T01830094

More Conditions Fewer Conditions

Pressure 29.99 in
Visibility 10.0 miles
Clouds Clear
Dew Point 51 °F
Humidity 59%
Rainfall 0.00 in
Snow Depth Not available.
UV 4 out of 12
Pollen 6.20 out of 12
Air Quality Not available.
Flu Activity Not available.
METAR KMFR 301653Z 00000KT 10SM CLR 18/09 A3002 RMK AO2 SLP155 T01830094

More Conditions Fewer Conditions

10-Day Weather Forecast

Almanac

Astronomy

Aug. 30, 2014 Rise Set
Actual Time 6:36 AM PDT 7:50 PM PDT
Civil Twilight 6:07 AM PDT 8:19 PM PDT
Nautical Twilight 5:32 AM PDT 8:54 PM PDT
Astronomical Twilight 4:55 AM PDT 9:31 PM PDT
Moon 11:36 AM PDT 10:21 PM PDT
Length of Visible Light 14h 12m
Length of Day
13h 14m
Tomorrow will be 2m 45s shorter.
Waxing Crescent, 23% of the Moon is Illuminated
Today
Waxing Crescent
Sep 2
First Quarter
Sep 8
Full
Sep 15
Last Quarter
Sep 24
New

Today's Extremes

State Highs State Lows

Community

WunderPhotos

Upload Photos

1,748,581 photos uploaded!

WunderBlogs® & News

Nearby

Snow Depth

Station Depth Elevation
Bigelow Camp 0 in 5120 ft
Fish Lake 0 in 4665 ft
Billie Creek Divide 0 in 5300 ft
Fourmile Lake 2 in 6000 ft
Cold Springs Camp 0 in 6100 ft

Earthquake Activity

City Distance Mag. Time & Date
No recent earthquake activity has been reported nearby.
Minimum magnitude displayed is 2.5.

Coastal Water Temperatures

Place Temperature
No Stations Reporting

Nearby Weather Stations